CFK2 weather

Bashaw Airport
Bashaw, Alberta, Canada

Public forecast

Using degrees Celsius for public forecast. Weather courtesy of forecast.io.

Closest aviation weather report (METAR) to Bashaw Airport

Closest report is Red Deer Regional Airport, 40.8 nm (75.6 km) WSW. Retrieved 2019/11/18 12:00 UTC (42 minutes ago):

CYQF 181200Z 24007KT 15SM SKC M01/M04 A2975 RMK SLP113

Closest aviation forecast (TAF) to Bashaw Airport

Closest forecast is Red Deer Regional Airport, 40.8 nm (75.6 km) WSW. Retrieved 2019/11/18 12:42 UTC (17 seconds ago):

TAF CYQF 181138Z 1812/1824 25006KT P6SM SKC RMK NXT FCST BY 181800Z